sensor_id;sensor_type;location;lat;lon;timestamp;temperature;humidity
65291;SHT30;51893;59.754;10.110;2023-02-25T00:01:46;-0.59;67.09
65291;SHT30;51893;59.754;10.110;2023-02-25T00:04:29;-0.66;67.14
65291;SHT30;51893;59.754;10.110;2023-02-25T00:06:59;-0.66;67.09
65291;SHT30;51893;59.754;10.110;2023-02-25T00:09:28;-0.65;67.09
65291;SHT30;51893;59.754;10.110;2023-02-25T00:11:57;-0.68;67.26
65291;SHT30;51893;59.754;10.110;2023-02-25T00:14:26;-0.76;67.41
65291;SHT30;51893;59.754;10.110;2023-02-25T00:16:55;-0.78;67.50
65291;SHT30;51893;59.754;10.110;2023-02-25T00:19:24;-0.89;67.55
65291;SHT30;51893;59.754;10.110;2023-02-25T00:21:53;-0.95;67.51
65291;SHT30;51893;59.754;10.110;2023-02-25T00:24:21;-0.98;67.66
65291;SHT30;51893;59.754;10.110;2023-02-25T00:26:48;-0.97;67.80
65291;SHT30;51893;59.754;10.110;2023-02-25T00:29:17;-1.01;67.76
65291;SHT30;51893;59.754;10.110;2023-02-25T00:31:45;-1.14;67.73
65291;SHT30;51893;59.754;10.110;2023-02-25T00:34:13;-1.14;67.76
65291;SHT30;51893;59.754;10.110;2023-02-25T00:36:41;-1.12;67.69
65291;SHT30;51893;59.754;10.110;2023-02-25T00:39:09;-1.14;67.89
65291;SHT30;51893;59.754;10.110;2023-02-25T00:41:38;-1.17;67.96
65291;SHT30;51893;59.754;10.110;2023-02-25T00:44:06;-1.19;68.12
65291;SHT30;51893;59.754;10.110;2023-02-25T00:46:34;-1.21;68.22
65291;SHT30;51893;59.754;10.110;2023-02-25T00:49:02;-1.23;68.38
65291;SHT30;51893;59.754;10.110;2023-02-25T00:51:32;-1.26;68.37
65291;SHT30;51893;59.754;10.110;2023-02-25T00:54:03;-1.29;68.30
65291;SHT30;51893;59.754;10.110;2023-02-25T00:56:31;-1.31;68.33
65291;SHT30;51893;59.754;10.110;2023-02-25T00:58:59;-1.28;68.18
65291;SHT30;51893;59.754;10.110;2023-02-25T01:01:29;-1.29;68.08
65291;SHT30;51893;59.754;10.110;2023-02-25T01:04:00;-1.37;68.16
65291;SHT30;51893;59.754;10.110;2023-02-25T01:06:29;-1.45;68.22
65291;SHT30;51893;59.754;10.110;2023-02-25T01:09:00;-1.55;68.09
65291;SHT30;51893;59.754;10.110;2023-02-25T01:11:35;-1.65;68.34
65291;SHT30;51893;59.754;10.110;2023-02-25T01:14:07;-1.76;68.65
65291;SHT30;51893;59.754;10.110;2023-02-25T01:16:40;-1.78;68.92
65291;SHT30;51893;59.754;10.110;2023-02-25T01:19:11;-1.88;69.09
65291;SHT30;51893;59.754;10.110;2023-02-25T01:21:43;-1.88;69.30
65291;SHT30;51893;59.754;10.110;2023-02-25T01:24:15;-1.92;69.43
65291;SHT30;51893;59.754;10.110;2023-02-25T01:26:49;-1.95;69.56
65291;SHT30;51893;59.754;10.110;2023-02-25T01:29:21;-2.01;69.69
65291;SHT30;51893;59.754;10.110;2023-02-25T01:31:56;-2.05;69.81
65291;SHT30;51893;59.754;10.110;2023-02-25T01:34:27;-2.08;69.99
65291;SHT30;51893;59.754;10.110;2023-02-25T01:36:58;-2.05;70.20
65291;SHT30;51893;59.754;10.110;2023-02-25T01:39:27;-2.09;70.23
65291;SHT30;51893;59.754;10.110;2023-02-25T01:41:55;-2.19;70.34
65291;SHT30;51893;59.754;10.110;2023-02-25T01:44:32;-2.30;70.54
65291;SHT30;51893;59.754;10.110;2023-02-25T01:47:05;-2.36;70.87
65291;SHT30;51893;59.754;10.110;2023-02-25T01:49:37;-2.43;70.94
65291;SHT30;51893;59.754;10.110;2023-02-25T01:52:13;-2.48;71.10
65291;SHT30;51893;59.754;10.110;2023-02-25T01:54:49;-2.48;71.42
65291;SHT30;51893;59.754;10.110;2023-02-25T01:57:21;-2.53;71.36
65291;SHT30;51893;59.754;10.110;2023-02-25T01:59:51;-2.58;71.62
65291;SHT30;51893;59.754;10.110;2023-02-25T02:02:22;-2.49;71.66
65291;SHT30;51893;59.754;10.110;2023-02-25T02:04:53;-2.46;71.38
65291;SHT30;51893;59.754;10.110;2023-02-25T02:07:23;-2.48;71.36
65291;SHT30;51893;59.754;10.110;2023-02-25T02:09:51;-2.43;71.52
65291;SHT30;51893;59.754;10.110;2023-02-25T02:12:40;-2.34;71.28
65291;SHT30;51893;59.754;10.110;2023-02-25T02:15:13;-2.40;71.06
65291;SHT30;51893;59.754;10.110;2023-02-25T02:17:55;-2.44;71.18
65291;SHT30;51893;59.754;10.110;2023-02-25T02:20:32;-2.51;71.50
65291;SHT30;51893;59.754;10.110;2023-02-25T02:23:39;-2.52;71.49
65291;SHT30;51893;59.754;10.110;2023-02-25T02:26:57;-2.57;71.61
65291;SHT30;51893;59.754;10.110;2023-02-25T02:35:12;-2.48;71.62
65291;SHT30;51893;59.754;10.110;2023-02-25T02:43:33;-2.59;71.53
65291;SHT30;51893;59.754;10.110;2023-02-25T02:46:24;-2.62;71.64
65291;SHT30;51893;59.754;10.110;2023-02-25T02:52:08;-2.65;71.59
65291;SHT30;51893;59.754;10.110;2023-02-25T02:54:43;-2.66;71.49
65291;SHT30;51893;59.754;10.110;2023-02-25T02:57:18;-2.67;71.54
65291;SHT30;51893;59.754;10.110;2023-02-25T02:59:52;-2.70;71.52
65291;SHT30;51893;59.754;10.110;2023-02-25T03:02:30;-2.73;71.49
65291;SHT30;51893;59.754;10.110;2023-02-25T03:05:06;-2.80;71.50
65291;SHT30;51893;59.754;10.110;2023-02-25T03:07:40;-2.74;71.62
65291;SHT30;51893;59.754;10.110;2023-02-25T03:10:20;-2.71;71.15
65291;SHT30;51893;59.754;10.110;2023-02-25T03:12:49;-2.76;71.25
65291;SHT30;51893;59.754;10.110;2023-02-25T03:15:17;-2.78;71.33
65291;SHT30;51893;59.754;10.110;2023-02-25T03:17:46;-2.87;71.37
65291;SHT30;51893;59.754;10.110;2023-02-25T03:20:25;-2.94;71.73
65291;SHT30;51893;59.754;10.110;2023-02-25T03:23:13;-2.98;71.55
65291;SHT30;51893;59.754;10.110;2023-02-25T03:28:38;-3.03;72.05
65291;SHT30;51893;59.754;10.110;2023-02-25T03:34:02;-3.17;71.89
65291;SHT30;51893;59.754;10.110;2023-02-25T03:36:45;-3.31;72.51
65291;SHT30;51893;59.754;10.110;2023-02-25T03:39:32;-3.40;72.60
65291;SHT30;51893;59.754;10.110;2023-02-25T03:42:09;-3.51;72.52
65291;SHT30;51893;59.754;10.110;2023-02-25T03:44:44;-3.56;72.72
65291;SHT30;51893;59.754;10.110;2023-02-25T03:47:18;-3.56;73.01
65291;SHT30;51893;59.754;10.110;2023-02-25T03:50:12;-3.61;73.24
65291;SHT30;51893;59.754;10.110;2023-02-25T03:52:51;-3.71;73.08
65291;SHT30;51893;59.754;10.110;2023-02-25T03:55:19;-3.85;73.31
65291;SHT30;51893;59.754;10.110;2023-02-25T03:57:48;-3.85;73.70
65291;SHT30;51893;59.754;10.110;2023-02-25T04:00:22;-3.78;73.55
65291;SHT30;51893;59.754;10.110;2023-02-25T04:02:57;-3.77;73.62
65291;SHT30;51893;59.754;10.110;2023-02-25T04:05:26;-3.79;73.50
65291;SHT30;51893;59.754;10.110;2023-02-25T04:07:55;-3.84;74.00
65291;SHT30;51893;59.754;10.110;2023-02-25T04:10:28;-3.84;74.23
65291;SHT30;51893;59.754;10.110;2023-02-25T04:12:56;-3.79;74.02
65291;SHT30;51893;59.754;10.110;2023-02-25T04:15:24;-3.76;73.83
65291;SHT30;51893;59.754;10.110;2023-02-25T04:17:55;-3.77;73.71
65291;SHT30;51893;59.754;10.110;2023-02-25T04:20:23;-3.79;73.69
65291;SHT30;51893;59.754;10.110;2023-02-25T04:22:51;-3.77;73.79
65291;SHT30;51893;59.754;10.110;2023-02-25T04:25:19;-3.73;73.94
65291;SHT30;51893;59.754;10.110;2023-02-25T04:27:47;-3.70;74.01
65291;SHT30;51893;59.754;10.110;2023-02-25T04:30:16;-3.68;73.61
65291;SHT30;51893;59.754;10.110;2023-02-25T04:32:45;-3.67;73.54
65291;SHT30;51893;59.754;10.110;2023-02-25T04:35:13;-3.61;73.52
65291;SHT30;51893;59.754;10.110;2023-02-25T04:37:41;-3.56;73.33
65291;SHT30;51893;59.754;10.110;2023-02-25T04:40:15;-3.53;73.17
65291;SHT30;51893;59.754;10.110;2023-02-25T04:42:48;-3.54;72.92
65291;SHT30;51893;59.754;10.110;2023-02-25T04:45:17;-3.52;72.95
65291;SHT30;51893;59.754;10.110;2023-02-25T04:47:46;-3.49;73.03
65291;SHT30;51893;59.754;10.110;2023-02-25T04:50:14;-3.43;72.94
65291;SHT30;51893;59.754;10.110;2023-02-25T04:52:42;-3.45;73.23
65291;SHT30;51893;59.754;10.110;2023-02-25T04:55:14;-3.34;73.21
65291;SHT30;51893;59.754;10.110;2023-02-25T04:57:42;-3.28;72.90
65291;SHT30;51893;59.754;10.110;2023-02-25T05:00:16;-3.32;72.55
65291;SHT30;51893;59.754;10.110;2023-02-25T05:02:47;-3.30;72.48
65291;SHT30;51893;59.754;10.110;2023-02-25T05:05:15;-3.31;72.20
65291;SHT30;51893;59.754;10.110;2023-02-25T05:07:43;-3.29;72.31
65291;SHT30;51893;59.754;10.110;2023-02-25T05:10:12;-3.13;72.11
65291;SHT30;51893;59.754;10.110;2023-02-25T05:12:41;-3.06;71.83
65291;SHT30;51893;59.754;10.110;2023-02-25T05:15:09;-3.04;71.68
65291;SHT30;51893;59.754;10.110;2023-02-25T05:17:38;-3.01;71.68
65291;SHT30;51893;59.754;10.110;2023-02-25T05:20:06;-3.00;71.48
65291;SHT30;51893;59.754;10.110;2023-02-25T05:22:40;-3.02;71.26
65291;SHT30;51893;59.754;10.110;2023-02-25T05:25:10;-3.04;71.21
65291;SHT30;51893;59.754;10.110;2023-02-25T05:27:38;-3.11;71.09
65291;SHT30;51893;59.754;10.110;2023-02-25T05:30:07;-3.15;71.56
65291;SHT30;51893;59.754;10.110;2023-02-25T05:32:37;-3.16;71.80
65291;SHT30;51893;59.754;10.110;2023-02-25T05:35:06;-3.25;71.41
65291;SHT30;51893;59.754;10.110;2023-02-25T05:37:35;-3.32;71.36
65291;SHT30;51893;59.754;10.110;2023-02-25T05:40:04;-3.36;71.43
65291;SHT30;51893;59.754;10.110;2023-02-25T05:42:36;-3.40;71.44
65291;SHT30;51893;59.754;10.110;2023-02-25T05:45:05;-3.40;71.47
65291;SHT30;51893;59.754;10.110;2023-02-25T05:47:35;-3.39;71.66
65291;SHT30;51893;59.754;10.110;2023-02-25T05:50:04;-3.37;71.74
65291;SHT30;51893;59.754;10.110;2023-02-25T05:52:32;-3.41;71.66
65291;SHT30;51893;59.754;10.110;2023-02-25T05:55:00;-3.36;71.92
65291;SHT30;51893;59.754;10.110;2023-02-25T05:57:29;-3.24;71.94
65291;SHT30;51893;59.754;10.110;2023-02-25T05:59:57;-3.18;72.03
65291;SHT30;51893;59.754;10.110;2023-02-25T06:02:26;-3.18;71.98
65291;SHT30;51893;59.754;10.110;2023-02-25T06:04:54;-3.28;71.77
65291;SHT30;51893;59.754;10.110;2023-02-25T06:07:23;-3.41;71.79
65291;SHT30;51893;59.754;10.110;2023-02-25T06:09:52;-3.49;71.92
65291;SHT30;51893;59.754;10.110;2023-02-25T06:12:24;-3.56;71.89
65291;SHT30;51893;59.754;10.110;2023-02-25T06:14:52;-3.61;71.87
65291;SHT30;51893;59.754;10.110;2023-02-25T06:17:21;-3.72;72.02
65291;SHT30;51893;59.754;10.110;2023-02-25T06:19:51;-3.78;72.30
65291;SHT30;51893;59.754;10.110;2023-02-25T06:22:20;-3.84;72.49
65291;SHT30;51893;59.754;10.110;2023-02-25T06:24:49;-3.92;72.69
65291;SHT30;51893;59.754;10.110;2023-02-25T06:27:17;-3.94;72.72
65291;SHT30;51893;59.754;10.110;2023-02-25T06:29:46;-3.96;72.66
65291;SHT30;51893;59.754;10.110;2023-02-25T06:32:15;-3.97;72.68
65291;SHT30;51893;59.754;10.110;2023-02-25T06:34:45;-4.01;72.60
65291;SHT30;51893;59.754;10.110;2023-02-25T06:37:13;-4.06;72.64
65291;SHT30;51893;59.754;10.110;2023-02-25T06:39:42;-4.04;72.73
65291;SHT30;51893;59.754;10.110;2023-02-25T06:42:12;-4.06;72.70
65291;SHT30;51893;59.754;10.110;2023-02-25T06:44:40;-4.03;72.74
65291;SHT30;51893;59.754;10.110;2023-02-25T06:47:08;-3.98;72.72
65291;SHT30;51893;59.754;10.110;2023-02-25T06:49:37;-3.91;72.70
65291;SHT30;51893;59.754;10.110;2023-02-25T06:52:05;-3.83;72.64
65291;SHT30;51893;59.754;10.110;2023-02-25T06:54:33;-3.80;72.45
65291;SHT30;51893;59.754;10.110;2023-02-25T06:57:01;-3.77;72.41
65291;SHT30;51893;59.754;10.110;2023-02-25T06:59:29;-3.74;72.40
65291;SHT30;51893;59.754;10.110;2023-02-25T07:01:57;-3.78;72.30
65291;SHT30;51893;59.754;10.110;2023-02-25T07:04:25;-3.81;72.38
65291;SHT30;51893;59.754;10.110;2023-02-25T07:06:53;-3.81;72.46
65291;SHT30;51893;59.754;10.110;2023-02-25T07:09:23;-3.87;72.49
65291;SHT30;51893;59.754;10.110;2023-02-25T07:11:52;-3.87;72.45
65291;SHT30;51893;59.754;10.110;2023-02-25T07:14:19;-3.81;72.56
65291;SHT30;51893;59.754;10.110;2023-02-25T07:16:49;-3.74;72.45
65291;SHT30;51893;59.754;10.110;2023-02-25T07:19:17;-3.74;72.30
65291;SHT30;51893;59.754;10.110;2023-02-25T07:21:45;-3.65;72.26
65291;SHT30;51893;59.754;10.110;2023-02-25T07:24:13;-3.59;72.11
65291;SHT30;51893;59.754;10.110;2023-02-25T07:26:41;-3.54;71.93
65291;SHT30;51893;59.754;10.110;2023-02-25T07:29:09;-3.57;71.82
65291;SHT30;51893;59.754;10.110;2023-02-25T07:31:37;-3.53;71.87
65291;SHT30;51893;59.754;10.110;2023-02-25T07:34:05;-3.44;71.80
65291;SHT30;51893;59.754;10.110;2023-02-25T07:36:34;-3.35;71.58
65291;SHT30;51893;59.754;10.110;2023-02-25T07:39:04;-3.32;71.13
65291;SHT30;51893;59.754;10.110;2023-02-25T07:41:35;-3.21;71.06
65291;SHT30;51893;59.754;10.110;2023-02-25T07:44:05;-3.00;70.79
65291;SHT30;51893;59.754;10.110;2023-02-25T07:46:33;-2.95;70.36
65291;SHT30;51893;59.754;10.110;2023-02-25T07:49:02;-2.88;70.29
65291;SHT30;51893;59.754;10.110;2023-02-25T07:51:30;-2.77;70.13
65291;SHT30;51893;59.754;10.110;2023-02-25T07:53:59;-2.68;70.04
65291;SHT30;51893;59.754;10.110;2023-02-25T07:56:28;-2.55;69.74
65291;SHT30;51893;59.754;10.110;2023-02-25T07:58:57;-2.48;69.62
65291;SHT30;51893;59.754;10.110;2023-02-25T08:01:28;-2.48;69.49
65291;SHT30;51893;59.754;10.110;2023-02-25T08:04:02;-2.51;69.50
65291;SHT30;51893;59.754;10.110;2023-02-25T08:06:36;-2.44;69.28
65291;SHT30;51893;59.754;10.110;2023-02-25T08:09:07;-2.36;69.06
65291;SHT30;51893;59.754;10.110;2023-02-25T08:11:41;-2.29;68.92
65291;SHT30;51893;59.754;10.110;2023-02-25T08:14:09;-2.18;68.84
65291;SHT30;51893;59.754;10.110;2023-02-25T08:16:38;-2.08;68.52
65291;SHT30;51893;59.754;10.110;2023-02-25T08:19:07;-1.98;68.21
65291;SHT30;51893;59.754;10.110;2023-02-25T08:21:35;-1.87;67.86
65291;SHT30;51893;59.754;10.110;2023-02-25T08:24:04;-1.77;67.85
65291;SHT30;51893;59.754;10.110;2023-02-25T08:26:33;-1.63;68.05
65291;SHT30;51893;59.754;10.110;2023-02-25T08:29:02;-1.47;67.60
65291;SHT30;51893;59.754;10.110;2023-02-25T08:31:31;-1.38;66.80
65291;SHT30;51893;59.754;10.110;2023-02-25T08:33:58;-1.29;66.28
65291;SHT30;51893;59.754;10.110;2023-02-25T08:36:28;-1.09;65.46
65291;SHT30;51893;59.754;10.110;2023-02-25T08:38:58;-0.93;66.25
65291;SHT30;51893;59.754;10.110;2023-02-25T08:41:27;-0.80;66.76
65291;SHT30;51893;59.754;10.110;2023-02-25T08:43:57;-0.67;66.33
65291;SHT30;51893;59.754;10.110;2023-02-25T08:46:29;-0.47;64.21
65291;SHT30;51893;59.754;10.110;2023-02-25T08:48:59;-0.25;61.65
65291;SHT30;51893;59.754;10.110;2023-02-25T08:51:28;-0.04;61.96
65291;SHT30;51893;59.754;10.110;2023-02-25T08:54:03;0.08;61.60
65291;SHT30;51893;59.754;10.110;2023-02-25T08:56:35;0.13;60.27
65291;SHT30;51893;59.754;10.110;2023-02-25T08:59:04;0.19;60.10
65291;SHT30;51893;59.754;10.110;2023-02-25T09:01:33;0.28;60.55
65291;SHT30;51893;59.754;10.110;2023-02-25T09:04:16;0.49;58.91
65291;SHT30;51893;59.754;10.110;2023-02-25T09:06:49;0.75;56.71
65291;SHT30;51893;59.754;10.110;2023-02-25T09:09:20;0.91;57.59
65291;SHT30;51893;59.754;10.110;2023-02-25T09:11:48;1.16;56.64
65291;SHT30;51893;59.754;10.110;2023-02-25T09:14:16;1.36;56.09
65291;SHT30;51893;59.754;10.110;2023-02-25T09:16:46;1.46;55.04
65291;SHT30;51893;59.754;10.110;2023-02-25T09:19:14;1.52;54.55
65291;SHT30;51893;59.754;10.110;2023-02-25T09:21:45;1.68;55.04
65291;SHT30;51893;59.754;10.110;2023-02-25T09:24:17;1.81;53.36
65291;SHT30;51893;59.754;10.110;2023-02-25T09:26:46;1.91;53.92
65291;SHT30;51893;59.754;10.110;2023-02-25T09:29:15;1.96;53.87
65291;SHT30;51893;59.754;10.110;2023-02-25T09:31:43;2.04;53.88
65291;SHT30;51893;59.754;10.110;2023-02-25T09:34:11;2.19;55.50
65291;SHT30;51893;59.754;10.110;2023-02-25T09:36:40;2.39;54.61
65291;SHT30;51893;59.754;10.110;2023-02-25T09:39:09;2.51;52.34
65291;SHT30;51893;59.754;10.110;2023-02-25T09:41:43;2.60;52.34
65291;SHT30;51893;59.754;10.110;2023-02-25T09:44:29;2.62;50.80
65291;SHT30;51893;59.754;10.110;2023-02-25T09:50:14;2.64;51.21
65291;SHT30;51893;59.754;10.110;2023-02-25T09:55:38;2.70;51.00
65291;SHT30;51893;59.754;10.110;2023-02-25T10:06:50;3.06;51.35
65291;SHT30;51893;59.754;10.110;2023-02-25T10:22:07;3.41;48.01
65291;SHT30;51893;59.754;10.110;2023-02-25T10:25:17;3.39;46.40
65291;SHT30;51893;59.754;10.110;2023-02-25T10:27:54;3.38;45.88
65291;SHT30;51893;59.754;10.110;2023-02-25T10:30:29;3.42;46.53
65291;SHT30;51893;59.754;10.110;2023-02-25T10:33:30;3.51;46.32
65291;SHT30;51893;59.754;10.110;2023-02-25T10:36:07;3.56;45.65
65291;SHT30;51893;59.754;10.110;2023-02-25T10:38:46;3.55;46.69
65291;SHT30;51893;59.754;10.110;2023-02-25T10:41:21;3.59;46.86
65291;SHT30;51893;59.754;10.110;2023-02-25T10:43:54;3.65;46.98
65291;SHT30;51893;59.754;10.110;2023-02-25T10:51:58;3.88;46.84
65291;SHT30;51893;59.754;10.110;2023-02-25T10:54:46;3.99;46.15
65291;SHT30;51893;59.754;10.110;2023-02-25T10:57:21;4.02;45.28
65291;SHT30;51893;59.754;10.110;2023-02-25T10:59:59;4.06;46.56
65291;SHT30;51893;59.754;10.110;2023-02-25T11:02:35;4.16;45.57
65291;SHT30;51893;59.754;10.110;2023-02-25T11:07:56;4.34;45.24
65291;SHT30;51893;59.754;10.110;2023-02-25T11:10:25;4.45;45.38
65291;SHT30;51893;59.754;10.110;2023-02-25T11:12:55;4.66;46.28
65291;SHT30;51893;59.754;10.110;2023-02-25T11:20:57;4.64;45.39
65291;SHT30;51893;59.754;10.110;2023-02-25T11:26:08;4.81;43.39
65291;SHT30;51893;59.754;10.110;2023-02-25T11:28:53;4.73;43.57
65291;SHT30;51893;59.754;10.110;2023-02-25T11:31:36;4.66;43.78
65291;SHT30;51893;59.754;10.110;2023-02-25T11:34:15;4.77;44.11
65291;SHT30;51893;59.754;10.110;2023-02-25T11:36:51;4.93;44.04
65291;SHT30;51893;59.754;10.110;2023-02-25T11:39:24;4.89;43.26
65291;SHT30;51893;59.754;10.110;2023-02-25T11:42:10;4.85;42.78
65291;SHT30;51893;59.754;10.110;2023-02-25T11:45:01;4.99;43.14
65291;SHT30;51893;59.754;10.110;2023-02-25T11:47:31;4.99;42.68
65291;SHT30;51893;59.754;10.110;2023-02-25T11:50:07;5.00;42.53
65291;SHT30;51893;59.754;10.110;2023-02-25T11:58:46;5.18;43.06
65291;SHT30;51893;59.754;10.110;2023-02-25T12:26:04;5.18;41.04
65291;SHT30;51893;59.754;10.110;2023-02-25T12:31:46;5.24;41.05
65291;SHT30;51893;59.754;10.110;2023-02-25T12:52:41;5.32;41.71
65291;SHT30;51893;59.754;10.110;2023-02-25T12:55:59;5.35;41.11
65291;SHT30;51893;59.754;10.110;2023-02-25T12:58:41;5.39;41.99
65291;SHT30;51893;59.754;10.110;2023-02-25T13:13:24;5.17;42.66
65291;SHT30;51893;59.754;10.110;2023-02-25T13:16:21;5.20;42.11
65291;SHT30;51893;59.754;10.110;2023-02-25T13:19:31;5.19;42.58
65291;SHT30;51893;59.754;10.110;2023-02-25T13:28:28;5.01;41.97
65291;SHT30;51893;59.754;10.110;2023-02-25T13:53:15;4.56;42.53
65291;SHT30;51893;59.754;10.110;2023-02-25T14:05:03;4.50;41.72
65291;SHT30;51893;59.754;10.110;2023-02-25T14:14:10;4.39;41.38
65291;SHT30;51893;59.754;10.110;2023-02-25T14:29:54;4.22;40.37
65291;SHT30;51893;59.754;10.110;2023-02-25T14:35:49;4.21;41.55
65291;SHT30;51893;59.754;10.110;2023-02-25T14:45:20;4.17;41.60
65291;SHT30;51893;59.754;10.110;2023-02-25T15:03:17;4.06;41.63
65291;SHT30;51893;59.754;10.110;2023-02-25T15:20:56;4.03;42.78
65291;SHT30;51893;59.754;10.110;2023-02-25T15:23:41;4.00;42.65
65291;SHT30;51893;59.754;10.110;2023-02-25T15:28:54;4.01;42.73
65291;SHT30;51893;59.754;10.110;2023-02-25T15:36:49;4.03;42.07
65291;SHT30;51893;59.754;10.110;2023-02-25T15:39:53;4.04;42.55
65291;SHT30;51893;59.754;10.110;2023-02-25T15:42:39;4.02;42.52
65291;SHT30;51893;59.754;10.110;2023-02-25T15:55:44;3.97;42.88
65291;SHT30;51893;59.754;10.110;2023-02-25T16:06:09;3.92;42.96
65291;SHT30;51893;59.754;10.110;2023-02-25T16:11:47;3.93;43.71
65291;SHT30;51893;59.754;10.110;2023-02-25T16:14:39;3.94;42.35
65291;SHT30;51893;59.754;10.110;2023-02-25T16:20:06;3.92;42.94
65291;SHT30;51893;59.754;10.110;2023-02-25T16:22:45;3.88;42.82
65291;SHT30;51893;59.754;10.110;2023-02-25T16:25:18;3.87;43.33
65291;SHT30;51893;59.754;10.110;2023-02-25T16:31:20;3.82;43.90
65291;SHT30;51893;59.754;10.110;2023-02-25T16:34:04;3.80;42.84
65291;SHT30;51893;59.754;10.110;2023-02-25T16:39:31;3.78;44.23
65291;SHT30;51893;59.754;10.110;2023-02-25T16:42:18;3.73;44.60
65291;SHT30;51893;59.754;10.110;2023-02-25T16:45:03;3.63;45.16
65291;SHT30;51893;59.754;10.110;2023-02-25T16:47:34;3.60;45.53
65291;SHT30;51893;59.754;10.110;2023-02-25T16:50:12;3.53;45.90
65291;SHT30;51893;59.754;10.110;2023-02-25T16:52:45;3.45;47.18
65291;SHT30;51893;59.754;10.110;2023-02-25T16:55:18;3.31;47.64
65291;SHT30;51893;59.754;10.110;2023-02-25T16:58:02;3.24;46.73
65291;SHT30;51893;59.754;10.110;2023-02-25T17:03:26;3.02;48.37
65291;SHT30;51893;59.754;10.110;2023-02-25T17:06:03;2.91;48.63
65291;SHT30;51893;59.754;10.110;2023-02-25T17:08:43;2.77;48.99
65291;SHT30;51893;59.754;10.110;2023-02-25T17:11:15;2.70;49.52
65291;SHT30;51893;59.754;10.110;2023-02-25T17:13:45;2.55;50.49
65291;SHT30;51893;59.754;10.110;2023-02-25T17:16:17;2.42;50.74
65291;SHT30;51893;59.754;10.110;2023-02-25T17:19:04;2.27;51.47
65291;SHT30;51893;59.754;10.110;2023-02-25T17:21:37;2.22;51.83
65291;SHT30;51893;59.754;10.110;2023-02-25T17:24:13;2.15;52.20
65291;SHT30;51893;59.754;10.110;2023-02-25T17:26:49;2.05;52.38
65291;SHT30;51893;59.754;10.110;2023-02-25T17:29:20;1.91;52.86
65291;SHT30;51893;59.754;10.110;2023-02-25T17:32:10;1.68;52.92
65291;SHT30;51893;59.754;10.110;2023-02-25T17:34:54;1.55;53.24
65291;SHT30;51893;59.754;10.110;2023-02-25T17:37:28;1.55;53.80
65291;SHT30;51893;59.754;10.110;2023-02-25T17:39:58;1.48;53.69
65291;SHT30;51893;59.754;10.110;2023-02-25T17:42:35;1.34;53.12
65291;SHT30;51893;59.754;10.110;2023-02-25T17:48:21;0.96;54.24
65291;SHT30;51893;59.754;10.110;2023-02-25T17:51:04;0.89;53.79
65291;SHT30;51893;59.754;10.110;2023-02-25T17:56:26;0.61;55.32
65291;SHT30;51893;59.754;10.110;2023-02-25T17:59:05;0.51;55.71
65291;SHT30;51893;59.754;10.110;2023-02-25T18:01:43;0.41;56.07
65291;SHT30;51893;59.754;10.110;2023-02-25T18:04:24;0.32;55.52
65291;SHT30;51893;59.754;10.110;2023-02-25T18:09:59;0.16;56.63
65291;SHT30;51893;59.754;10.110;2023-02-25T18:12:28;0.08;57.25
65291;SHT30;51893;59.754;10.110;2023-02-25T18:15:21;0.09;57.46
65291;SHT30;51893;59.754;10.110;2023-02-25T18:17:58;0.05;57.74
65291;SHT30;51893;59.754;10.110;2023-02-25T18:20:37;-0.01;57.88
65291;SHT30;51893;59.754;10.110;2023-02-25T18:25:40;-0.09;57.76
65291;SHT30;51893;59.754;10.110;2023-02-25T18:28:13;-0.05;57.05
65291;SHT30;51893;59.754;10.110;2023-02-25T18:30:50;0.01;57.04
65291;SHT30;51893;59.754;10.110;2023-02-25T18:33:20;0.01;57.27
65291;SHT30;51893;59.754;10.110;2023-02-25T18:35:51;-0.02;57.70
65291;SHT30;51893;59.754;10.110;2023-02-25T18:38:23;-0.10;57.34
65291;SHT30;51893;59.754;10.110;2023-02-25T18:40:57;-0.17;57.66
65291;SHT30;51893;59.754;10.110;2023-02-25T18:43:25;-0.25;57.98
65291;SHT30;51893;59.754;10.110;2023-02-25T18:45:58;-0.31;57.98
65291;SHT30;51893;59.754;10.110;2023-02-25T18:48:26;-0.31;58.17
65291;SHT30;51893;59.754;10.110;2023-02-25T18:50:53;-0.31;58.33
65291;SHT30;51893;59.754;10.110;2023-02-25T18:53:23;-0.34;57.98
65291;SHT30;51893;59.754;10.110;2023-02-25T18:55:53;-0.41;58.27
65291;SHT30;51893;59.754;10.110;2023-02-25T18:58:23;-0.50;58.47
65291;SHT30;51893;59.754;10.110;2023-02-25T19:00:53;-0.50;58.46
65291;SHT30;51893;59.754;10.110;2023-02-25T19:03:27;-0.50;58.57
65291;SHT30;51893;59.754;10.110;2023-02-25T19:06:01;-0.50;58.36
65291;SHT30;51893;59.754;10.110;2023-02-25T19:08:31;-0.49;58.34
65291;SHT30;51893;59.754;10.110;2023-02-25T19:10:59;-0.49;58.36
65291;SHT30;51893;59.754;10.110;2023-02-25T19:13:34;-0.53;58.38
65291;SHT30;51893;59.754;10.110;2023-02-25T19:16:07;-0.56;58.36
65291;SHT30;51893;59.754;10.110;2023-02-25T19:18:36;-0.57;58.46
65291;SHT30;51893;59.754;10.110;2023-02-25T19:21:08;-0.64;58.67
65291;SHT30;51893;59.754;10.110;2023-02-25T19:23:41;-0.78;59.12
65291;SHT30;51893;59.754;10.110;2023-02-25T19:26:09;-0.82;59.31
65291;SHT30;51893;59.754;10.110;2023-02-25T19:28:38;-0.82;59.60
65291;SHT30;51893;59.754;10.110;2023-02-25T19:31:07;-0.88;59.55
65291;SHT30;51893;59.754;10.110;2023-02-25T19:33:36;-0.87;59.08
65291;SHT30;51893;59.754;10.110;2023-02-25T19:36:04;-0.84;59.07
65291;SHT30;51893;59.754;10.110;2023-02-25T19:38:33;-0.91;59.34
65291;SHT30;51893;59.754;10.110;2023-02-25T19:41:02;-0.97;59.30
65291;SHT30;51893;59.754;10.110;2023-02-25T19:43:32;-0.96;59.39
65291;SHT30;51893;59.754;10.110;2023-02-25T19:46:06;-0.97;59.40
65291;SHT30;51893;59.754;10.110;2023-02-25T19:48:35;-0.95;58.74
65291;SHT30;51893;59.754;10.110;2023-02-25T19:51:04;-0.89;58.15
65291;SHT30;51893;59.754;10.110;2023-02-25T19:53:35;-0.92;58.46
65291;SHT30;51893;59.754;10.110;2023-02-25T19:56:05;-0.92;58.66
65291;SHT30;51893;59.754;10.110;2023-02-25T19:58:34;-0.93;58.88
65291;SHT30;51893;59.754;10.110;2023-02-25T20:01:03;-0.89;58.54
65291;SHT30;51893;59.754;10.110;2023-02-25T20:03:34;-0.82;58.38
65291;SHT30;51893;59.754;10.110;2023-02-25T20:06:04;-0.80;58.23
65291;SHT30;51893;59.754;10.110;2023-02-25T20:08:39;-0.85;58.67
65291;SHT30;51893;59.754;10.110;2023-02-25T20:11:07;-0.88;58.57
65291;SHT30;51893;59.754;10.110;2023-02-25T20:13:37;-0.87;58.85
65291;SHT30;51893;59.754;10.110;2023-02-25T20:16:05;-0.92;59.09
65291;SHT30;51893;59.754;10.110;2023-02-25T20:18:34;-0.93;59.14
65291;SHT30;51893;59.754;10.110;2023-02-25T20:21:02;-0.92;59.25
65291;SHT30;51893;59.754;10.110;2023-02-25T20:23:32;-0.93;59.29
65291;SHT30;51893;59.754;10.110;2023-02-25T20:26:01;-0.90;58.90
65291;SHT30;51893;59.754;10.110;2023-02-25T20:28:35;-0.96;59.40
65291;SHT30;51893;59.754;10.110;2023-02-25T20:31:04;-0.95;59.08
65291;SHT30;51893;59.754;10.110;2023-02-25T20:33:38;-0.91;58.80
65291;SHT30;51893;59.754;10.110;2023-02-25T20:36:16;-0.96;59.13